createdAt,value
2022-12-08T00:01:27.649Z,10.63
2022-12-08T00:03:55.484Z,7.82
2022-12-08T00:06:46.016Z,8.35
2022-12-08T00:09:39.374Z,11.40
2022-12-08T00:12:08.440Z,7.28
2022-12-08T00:14:38.701Z,8.35
2022-12-08T00:17:07.680Z,7.65
2022-12-08T00:19:34.519Z,7.45
2022-12-08T00:22:03.304Z,6.13
2022-12-08T00:24:32.923Z,5.97
2022-12-08T00:27:00.160Z,7.30
2022-12-08T00:29:27.249Z,6.20
2022-12-08T00:31:54.626Z,5.35
2022-12-08T00:34:21.570Z,5.75
2022-12-08T00:36:48.703Z,5.88
2022-12-08T00:39:17.217Z,10.02
2022-12-08T00:42:03.607Z,6.68
2022-12-08T00:44:30.451Z,4.97
2022-12-08T00:46:57.557Z,5.88
2022-12-08T00:49:24.716Z,4.32
2022-12-08T00:51:52.376Z,6.68
2022-12-08T00:54:19.661Z,5.07
2022-12-08T00:56:46.793Z,4.40
2022-12-08T00:59:13.816Z,5.47
2022-12-08T01:01:41.488Z,4.07
2022-12-08T01:04:11.359Z,7.03
2022-12-08T01:06:39.497Z,4.90
2022-12-08T01:09:07.821Z,10.75
2022-12-08T01:11:36.633Z,5.15
2022-12-08T01:14:03.796Z,6.07
2022-12-08T01:16:33.712Z,4.32
2022-12-08T01:19:02.011Z,4.47
2022-12-08T01:21:29.480Z,5.30
2022-12-08T01:23:58.001Z,4.18
2022-12-08T01:26:25.068Z,5.18
2022-12-08T01:29:11.794Z,4.63
2022-12-08T01:31:39.406Z,6.10
2022-12-08T01:34:07.215Z,4.85
2022-12-08T01:36:38.530Z,2.95
2022-12-08T01:39:14.242Z,3.22
2022-12-08T01:41:43.712Z,4.68
2022-12-08T01:44:13.325Z,7.50
2022-12-08T01:46:42.620Z,5.13
2022-12-08T01:49:18.506Z,4.28
2022-12-08T01:51:54.437Z,3.45
2022-12-08T01:54:26.288Z,6.07
2022-12-08T01:57:08.737Z,6.53
2022-12-08T01:59:42.065Z,4.35
2022-12-08T02:02:11.556Z,5.45
2022-12-08T02:04:38.907Z,6.93
2022-12-08T02:07:08.600Z,5.53
2022-12-08T02:09:38.483Z,7.25
2022-12-08T02:12:05.871Z,6.53
2022-12-08T02:14:34.289Z,3.53
2022-12-08T02:17:07.702Z,3.42
2022-12-08T02:19:59.569Z,6.80
2022-12-08T02:22:32.337Z,4.82
2022-12-08T02:25:12.370Z,5.10
2022-12-08T02:28:11.621Z,8.85
2022-12-08T02:31:01.320Z,9.48
2022-12-08T02:33:40.239Z,5.50
2022-12-08T02:36:24.388Z,4.28
2022-12-08T02:39:11.431Z,4.95
2022-12-08T02:42:01.399Z,5.90
2022-12-08T02:44:53.004Z,7.45
2022-12-08T02:47:23.755Z,5.18
2022-12-08T02:49:50.884Z,6.00
2022-12-08T02:52:17.679Z,5.28
2022-12-08T02:54:50.689Z,8.60
2022-12-08T02:57:38.043Z,4.50
2022-12-08T03:00:17.851Z,6.40
2022-12-08T03:02:47.453Z,8.23
2022-12-08T03:05:57.576Z,6.18
2022-12-08T03:08:50.437Z,4.95
2022-12-08T03:11:42.142Z,6.30
2022-12-08T03:14:12.138Z,7.22
2022-12-08T03:16:43.617Z,5.03
2022-12-08T03:19:18.618Z,6.20
2022-12-08T03:21:51.735Z,7.07
2022-12-08T03:24:22.008Z,7.45
2022-12-08T03:26:59.675Z,6.47
2022-12-08T03:29:26.668Z,14.45
2022-12-08T03:31:59.978Z,8.60
2022-12-08T03:34:29.861Z,6.72
2022-12-08T03:36:57.283Z,6.18
2022-12-08T03:39:24.454Z,5.90
2022-12-08T03:41:51.607Z,6.10
2022-12-08T03:44:18.416Z,7.97
2022-12-08T03:46:45.979Z,5.72
2022-12-08T03:49:12.786Z,7.22
2022-12-08T03:51:39.993Z,9.95
2022-12-08T03:54:06.830Z,6.82
2022-12-08T03:56:37.113Z,10.10
2022-12-08T03:59:05.546Z,8.98
2022-12-08T04:01:32.719Z,8.90
2022-12-08T04:03:59.723Z,12.82
2022-12-08T04:06:26.892Z,12.82
2022-12-08T04:08:53.822Z,7.93
2022-12-08T04:11:21.243Z,7.30
2022-12-08T04:13:48.479Z,11.20
2022-12-08T04:16:21.413Z,11.15
2022-12-08T04:18:48.889Z,10.93
2022-12-08T04:21:16.547Z,8.55
2022-12-08T04:23:43.729Z,7.75
2022-12-08T04:26:10.911Z,15.50
2022-12-08T04:28:38.139Z,8.57
2022-12-08T04:31:05.425Z,12.10
2022-12-08T04:33:32.467Z,12.25
2022-12-08T04:35:59.715Z,9.30
2022-12-08T04:38:26.557Z,9.85
2022-12-08T04:40:53.794Z,11.50
2022-12-08T04:43:20.745Z,16.08
2022-12-08T04:45:48.121Z,12.23
2022-12-08T04:48:15.347Z,12.20
2022-12-08T04:50:44.878Z,11.55
2022-12-08T04:53:12.653Z,11.88
2022-12-08T04:55:41.323Z,13.50
2022-12-08T04:58:08.248Z,13.15
2022-12-08T05:00:35.337Z,8.60
2022-12-08T05:03:02.244Z,14.13
2022-12-08T05:05:29.357Z,9.82
2022-12-08T05:07:56.303Z,9.88
2022-12-08T05:10:23.830Z,13.45
2022-12-08T05:12:50.748Z,7.93
2022-12-08T05:15:18.068Z,11.20
2022-12-08T05:17:44.870Z,11.20
2022-12-08T05:20:12.314Z,15.15
2022-12-08T05:22:39.137Z,10.90
2022-12-08T05:25:06.490Z,13.40
2022-12-08T05:27:33.361Z,15.05
2022-12-08T05:30:00.434Z,12.13
2022-12-08T05:32:27.322Z,14.13
2022-12-08T05:34:54.445Z,17.27
2022-12-08T05:37:21.339Z,15.00
2022-12-08T05:39:48.476Z,12.45
2022-12-08T05:42:18.353Z,17.23
2022-12-08T05:44:48.939Z,18.13
2022-12-08T05:47:15.753Z,16.55
2022-12-08T05:49:42.887Z,16.83
2022-12-08T05:52:10.003Z,15.85
2022-12-08T05:54:37.360Z,16.67
2022-12-08T05:57:04.176Z,17.50
2022-12-08T05:59:31.304Z,14.50
2022-12-08T06:01:58.280Z,13.38
2022-12-08T06:04:25.551Z,11.85
2022-12-08T06:06:52.479Z,15.25
2022-12-08T06:09:19.579Z,15.10
2022-12-08T06:11:47.319Z,16.33
2022-12-08T06:14:14.617Z,12.40
2022-12-08T06:16:41.559Z,13.48
2022-12-08T06:19:08.768Z,10.20
2022-12-08T06:21:35.632Z,13.20
2022-12-08T06:24:02.849Z,14.13
2022-12-08T06:26:29.770Z,13.90
2022-12-08T06:28:56.893Z,16.85
2022-12-08T06:31:25.860Z,16.67
2022-12-08T06:33:54.821Z,16.17
2022-12-08T06:36:25.254Z,15.85
2022-12-08T06:38:52.819Z,14.52
2022-12-08T06:41:19.821Z,13.57
2022-12-08T06:43:47.209Z,14.73
2022-12-08T06:46:17.635Z,13.05
2022-12-08T06:48:45.472Z,21.50
2022-12-08T06:51:17.865Z,13.73
2022-12-08T06:53:46.644Z,11.38
2022-12-08T06:56:15.930Z,15.95
2022-12-08T06:58:46.169Z,11.10
2022-12-08T07:01:17.540Z,13.68
2022-12-08T07:03:44.787Z,12.23
2022-12-08T07:06:24.020Z,13.57
2022-12-08T07:08:51.374Z,13.48
2022-12-08T07:11:21.863Z,18.63
2022-12-08T07:13:49.899Z,16.38
2022-12-08T07:16:16.852Z,15.55
2022-12-08T07:18:44.224Z,17.48
2022-12-08T07:21:13.319Z,12.75
2022-12-08T07:23:41.776Z,24.02
2022-12-08T07:26:11.337Z,13.23
2022-12-08T07:28:40.677Z,17.50
2022-12-08T07:31:15.998Z,18.10
2022-12-08T07:33:43.318Z,16.20
2022-12-08T07:36:10.453Z,12.80
2022-12-08T07:38:37.673Z,16.10
2022-12-08T07:41:04.818Z,15.77
2022-12-08T07:43:31.987Z,19.20
2022-12-08T07:45:58.973Z,18.23
2022-12-08T07:48:26.144Z,16.77
2022-12-08T07:51:00.450Z,13.98
2022-12-08T07:53:27.583Z,15.75
2022-12-08T07:55:54.449Z,17.48
2022-12-08T07:58:21.619Z,14.48
2022-12-08T08:00:48.527Z,16.27
2022-12-08T08:03:16.000Z,20.90
2022-12-08T08:05:44.158Z,23.92
2022-12-08T08:08:11.499Z,16.55
2022-12-08T08:10:38.379Z,20.38
2022-12-08T08:13:05.637Z,17.77
2022-12-08T08:15:32.544Z,14.57
2022-12-08T08:17:59.899Z,21.80
2022-12-08T08:20:27.095Z,22.20
2022-12-08T08:22:54.298Z,17.55
2022-12-08T08:25:24.695Z,16.63
2022-12-08T08:27:52.128Z,20.40
2022-12-08T08:30:20.983Z,16.35
2022-12-08T08:32:49.544Z,19.35
2022-12-08T08:35:16.813Z,19.38
2022-12-08T08:37:48.562Z,19.50
2022-12-08T08:40:17.379Z,15.30
2022-12-08T08:42:44.544Z,20.58
2022-12-08T08:45:11.636Z,17.40
2022-12-08T08:47:38.904Z,17.15
2022-12-08T08:50:06.821Z,16.88
2022-12-08T08:52:34.136Z,21.17
2022-12-08T08:55:00.972Z,28.08
2022-12-08T08:57:28.179Z,18.38
2022-12-08T08:59:55.265Z,16.88
2022-12-08T09:02:22.846Z,19.23
2022-12-08T09:04:50.074Z,18.52
2022-12-08T09:07:17.355Z,24.02
2022-12-08T09:09:44.238Z,18.95
2022-12-08T09:12:12.132Z,20.38
2022-12-08T09:14:39.202Z,19.48
2022-12-08T09:17:07.207Z,20.13
2022-12-08T09:19:34.958Z,21.92
2022-12-08T09:22:02.119Z,20.38
2022-12-08T09:24:29.020Z,16.40
2022-12-08T09:26:56.173Z,21.77
2022-12-08T09:29:23.019Z,23.20
2022-12-08T09:31:50.194Z,28.92
2022-12-08T09:34:17.158Z,21.38
2022-12-08T09:36:44.270Z,20.17
2022-12-08T09:39:11.150Z,26.58
2022-12-08T09:41:48.270Z,25.20
2022-12-08T09:44:38.773Z,19.77
2022-12-08T09:47:29.491Z,18.10
2022-12-08T09:50:11.290Z,21.77
2022-12-08T09:52:44.172Z,30.42
2022-12-08T09:55:24.563Z,25.00
2022-12-08T09:58:00.547Z,19.83
2022-12-08T10:00:27.789Z,24.25
2022-12-08T10:02:57.353Z,20.58
2022-12-08T10:05:26.289Z,26.60
2022-12-08T10:08:06.255Z,17.98
2022-12-08T10:10:42.120Z,18.60
2022-12-08T10:13:35.438Z,22.13
2022-12-08T10:16:29.699Z,18.70
2022-12-08T10:19:23.258Z,21.00
2022-12-08T10:21:53.110Z,26.90
2022-12-08T10:24:26.085Z,23.13
2022-12-08T10:26:55.314Z,19.58
2022-12-08T10:29:22.318Z,22.00
2022-12-08T10:31:49.652Z,22.30
2022-12-08T10:34:20.447Z,23.88
2022-12-08T10:36:56.345Z,22.40
2022-12-08T10:39:46.875Z,20.92
2022-12-08T10:42:14.251Z,27.17
2022-12-08T10:45:02.906Z,21.17
2022-12-08T10:47:35.315Z,30.10
2022-12-08T10:50:19.578Z,27.00
2022-12-08T10:52:55.161Z,26.92
2022-12-08T10:55:23.409Z,26.75
2022-12-08T10:57:50.649Z,24.08
2022-12-08T11:00:24.575Z,28.90
2022-12-08T11:02:53.400Z,27.08
2022-12-08T11:05:22.878Z,27.55
2022-12-08T11:07:52.777Z,27.48
2022-12-08T11:10:27.084Z,29.27
2022-12-08T11:12:55.302Z,30.65
2022-12-08T11:15:22.123Z,27.48
2022-12-08T11:18:00.959Z,27.17
2022-12-08T11:20:27.976Z,28.45
2022-12-08T11:22:56.607Z,27.70
2022-12-08T11:25:25.709Z,27.95
2022-12-08T11:28:01.813Z,29.42
2022-12-08T11:30:37.738Z,24.35
2022-12-08T11:33:19.454Z,25.08
2022-12-08T11:35:51.838Z,25.95
2022-12-08T11:38:22.771Z,25.45
2022-12-08T11:41:16.906Z,24.08
2022-12-08T11:44:06.933Z,31.27
2022-12-08T11:46:46.375Z,24.92
2022-12-08T11:49:14.687Z,27.05
2022-12-08T11:51:53.368Z,28.00
2022-12-08T11:54:35.140Z,29.85
2022-12-08T11:57:05.801Z,28.63
2022-12-08T11:59:38.390Z,28.08
2022-12-08T12:02:11.490Z,30.10
2022-12-08T12:05:02.803Z,29.30
2022-12-08T12:07:58.693Z,31.57
2022-12-08T12:10:31.893Z,29.52
2022-12-08T12:13:20.282Z,31.85
2022-12-08T12:16:05.528Z,32.03
2022-12-08T12:18:45.187Z,31.70
2022-12-08T12:21:28.136Z,35.58
2022-12-08T12:24:00.537Z,33.20
2022-12-08T12:26:37.201Z,27.35
2022-12-08T12:29:09.093Z,29.02
2022-12-08T12:31:41.653Z,30.42
2022-12-08T12:34:16.934Z,26.55
2022-12-08T12:37:03.304Z,28.42
2022-12-08T12:39:34.208Z,31.17
2022-12-08T12:42:04.664Z,30.40
2022-12-08T12:44:34.500Z,30.92
2022-12-08T12:47:04.339Z,30.48
2022-12-08T12:49:40.459Z,33.35
2022-12-08T12:52:10.326Z,27.70
2022-12-08T12:54:42.678Z,26.67
2022-12-08T12:57:09.863Z,34.80
2022-12-08T12:59:45.502Z,34.85
2022-12-08T13:02:36.083Z,31.80
2022-12-08T13:05:22.747Z,30.55
2022-12-08T13:08:01.059Z,31.45
2022-12-08T13:10:37.427Z,33.03
2022-12-08T13:13:24.953Z,31.60
2022-12-08T13:15:55.216Z,32.30
2022-12-08T13:18:46.456Z,30.02
2022-12-08T13:21:16.063Z,32.22
2022-12-08T13:23:48.982Z,35.40
2022-12-08T13:26:23.672Z,31.52
2022-12-08T13:29:01.246Z,37.63
2022-12-08T13:31:48.318Z,35.30
2022-12-08T13:34:20.323Z,35.92
2022-12-08T13:37:11.689Z,32.88
2022-12-08T13:39:38.852Z,35.63
2022-12-08T13:42:33.760Z,34.45
2022-12-08T13:45:33.965Z,35.90
2022-12-08T13:48:26.983Z,32.28
2022-12-08T13:57:26.536Z,37.53
2022-12-08T13:59:53.440Z,35.58
2022-12-08T14:02:30.178Z,40.53
2022-12-08T14:07:46.423Z,37.42
2022-12-08T14:10:19.595Z,35.30
2022-12-08T14:12:52.273Z,38.17
2022-12-08T14:15:19.480Z,33.25
2022-12-08T14:17:54.970Z,38.90
2022-12-08T14:20:30.362Z,37.03
2022-12-08T14:22:59.661Z,39.72
2022-12-08T14:25:30.143Z,37.40
2022-12-08T14:28:03.133Z,39.05
2022-12-08T14:30:34.710Z,38.60
2022-12-08T14:33:04.397Z,41.40
2022-12-08T14:35:37.057Z,35.17
2022-12-08T14:38:14.970Z,35.20
2022-12-08T14:40:53.834Z,38.95
2022-12-08T14:43:27.054Z,35.53
2022-12-08T14:45:58.265Z,35.70
2022-12-08T14:51:03.206Z,34.42
2022-12-08T14:53:38.197Z,38.33
2022-12-08T14:56:18.013Z,34.38
2022-12-08T14:58:45.668Z,30.95
2022-12-08T15:01:17.024Z,36.65
2022-12-08T15:06:20.896Z,38.65
2022-12-08T15:08:58.847Z,38.88
2022-12-08T15:11:34.968Z,39.22
2022-12-08T15:14:03.051Z,42.05
2022-12-08T15:16:43.478Z,40.55
2022-12-08T15:19:24.451Z,38.17
2022-12-08T15:21:51.402Z,37.03
2022-12-08T15:24:19.880Z,35.20
2022-12-08T15:26:49.941Z,32.28
2022-12-08T15:29:29.511Z,37.15
2022-12-08T15:32:01.612Z,41.45
2022-12-08T15:34:31.639Z,36.55
2022-12-08T15:36:58.538Z,35.80
2022-12-08T15:39:34.868Z,35.45
2022-12-08T15:42:03.188Z,39.85
2022-12-08T15:44:32.809Z,35.63
2022-12-08T15:47:00.799Z,40.80
2022-12-08T15:49:28.109Z,36.92
2022-12-08T15:52:04.941Z,39.40
2022-12-08T15:54:37.698Z,40.03
2022-12-08T15:57:19.459Z,36.88
2022-12-08T15:59:50.410Z,38.28
2022-12-08T16:02:22.353Z,42.08
2022-12-08T16:07:38.264Z,34.17
2022-12-08T16:10:08.012Z,34.92
2022-12-08T16:15:59.127Z,38.65
2022-12-08T16:18:29.982Z,38.30
2022-12-08T16:21:31.597Z,35.50
2022-12-08T16:23:45.477Z,38.63
2022-12-08T16:26:28.359Z,39.88
2022-12-08T16:28:55.792Z,39.92
2022-12-08T16:31:23.527Z,35.53
2022-12-08T16:33:50.471Z,40.88
2022-12-08T16:36:17.962Z,39.45
2022-12-08T16:38:44.901Z,39.30
2022-12-08T16:41:35.132Z,39.55
2022-12-08T16:44:03.889Z,34.83
2022-12-08T16:46:31.681Z,39.40
2022-12-08T16:48:59.135Z,42.95
2022-12-08T16:51:27.545Z,41.67
2022-12-08T16:53:57.158Z,41.42
2022-12-08T16:56:30.631Z,38.60
2022-12-08T16:58:59.949Z,34.78
2022-12-08T17:01:27.824Z,36.50
2022-12-08T17:06:42.682Z,34.58
2022-12-08T17:09:09.728Z,38.28
2022-12-08T17:11:42.933Z,34.97
2022-12-08T17:14:13.092Z,34.33
2022-12-08T17:16:41.475Z,32.85
2022-12-08T17:19:08.983Z,38.72
2022-12-08T17:21:36.944Z,37.97
2022-12-08T17:24:04.853Z,34.25
2022-12-08T17:26:32.080Z,34.30
2022-12-08T17:29:00.959Z,33.10
2022-12-08T17:31:31.236Z,27.85
2022-12-08T17:34:03.057Z,31.52
2022-12-08T17:36:31.213Z,36.50
2022-12-08T17:38:59.837Z,31.17
2022-12-08T17:41:27.178Z,36.38
2022-12-08T17:43:54.133Z,33.10
2022-12-08T17:46:22.899Z,31.65
2022-12-08T17:48:50.227Z,34.25
2022-12-08T17:51:17.544Z,31.75
2022-12-08T17:53:44.629Z,33.42
2022-12-08T17:56:21.390Z,36.33
2022-12-08T17:58:54.214Z,31.50
2022-12-08T18:01:41.037Z,31.52
2022-12-08T18:04:09.969Z,32.28
2022-12-08T18:06:38.129Z,32.85
2022-12-08T18:09:07.854Z,35.08
2022-12-08T18:11:35.690Z,33.53
2022-12-08T18:14:10.148Z,35.25
2022-12-08T18:16:39.874Z,31.27
2022-12-08T18:19:07.867Z,32.70
2022-12-08T18:21:35.705Z,35.67
2022-12-08T18:24:04.234Z,29.38
2022-12-08T18:26:31.183Z,34.25
2022-12-08T18:28:58.565Z,35.17
2022-12-08T18:31:25.789Z,38.67
2022-12-08T18:33:53.196Z,38.20
2022-12-08T18:36:23.993Z,36.00
2022-12-08T18:38:52.483Z,36.60
2022-12-08T18:41:26.249Z,30.05
2022-12-08T18:43:55.279Z,36.08
2022-12-08T18:46:22.420Z,37.15
2022-12-08T18:48:51.402Z,36.55
2022-12-08T18:51:21.264Z,36.55
2022-12-08T18:53:49.207Z,31.60
2022-12-08T18:56:28.482Z,39.00
2022-12-08T18:59:02.795Z,33.90
2022-12-08T19:01:32.115Z,33.00
2022-12-08T19:06:47.470Z,35.25
2022-12-08T19:09:15.923Z,38.70
2022-12-08T19:11:43.255Z,39.15
2022-12-08T19:14:11.535Z,30.25
2022-12-08T19:16:38.466Z,41.15
2022-12-08T19:19:06.192Z,40.08
2022-12-08T19:21:33.254Z,38.88
2022-12-08T19:24:00.486Z,36.10
2022-12-08T19:26:28.289Z,37.22
2022-12-08T19:28:56.230Z,35.65
2022-12-08T19:31:23.173Z,33.40
2022-12-08T19:33:50.518Z,40.55
2022-12-08T19:36:20.922Z,39.50
2022-12-08T19:39:06.887Z,39.53
2022-12-08T19:41:52.332Z,34.40
2022-12-08T19:44:34.068Z,40.85
2022-12-08T19:47:01.615Z,42.25
2022-12-08T19:49:28.951Z,37.78
2022-12-08T19:51:56.219Z,35.25
2022-12-08T19:54:24.111Z,42.15
2022-12-08T19:56:51.443Z,36.65
2022-12-08T19:59:19.291Z,38.10
2022-12-08T20:01:48.459Z,39.13
2022-12-08T20:04:16.610Z,40.88
2022-12-08T20:06:44.527Z,38.28
2022-12-08T20:09:12.962Z,37.05
2022-12-08T20:11:40.755Z,37.50
2022-12-08T20:14:08.414Z,35.58
2022-12-08T20:16:35.717Z,37.20
2022-12-08T20:19:02.985Z,36.53
2022-12-08T20:21:30.095Z,37.67
2022-12-08T20:23:57.314Z,37.05
2022-12-08T20:26:24.222Z,36.55
2022-12-08T20:28:51.628Z,34.72
2022-12-08T20:31:20.319Z,37.78
2022-12-08T20:33:47.926Z,41.80
2022-12-08T20:36:18.746Z,40.25
2022-12-08T20:38:47.929Z,39.65
2022-12-08T20:41:16.179Z,41.03
2022-12-08T20:43:44.614Z,34.47
2022-12-08T20:46:14.313Z,39.58
2022-12-08T20:48:42.313Z,40.10
2022-12-08T20:51:12.813Z,37.47
2022-12-08T20:53:40.010Z,41.13
2022-12-08T20:56:07.417Z,41.78
2022-12-08T20:58:34.739Z,40.33
2022-12-08T21:01:01.862Z,35.25
2022-12-08T21:03:29.210Z,38.15
2022-12-08T21:05:56.815Z,42.65
2022-12-08T21:08:26.059Z,39.15
2022-12-08T21:10:54.500Z,38.72
2022-12-08T21:13:21.840Z,42.53
2022-12-08T21:15:49.040Z,39.97
2022-12-08T21:18:17.025Z,40.47
2022-12-08T21:20:44.210Z,35.47
2022-12-08T21:23:12.048Z,37.70
2022-12-08T21:25:43.655Z,38.17
2022-12-08T21:28:11.473Z,38.42
2022-12-08T21:30:40.204Z,35.70
2022-12-08T21:33:07.708Z,46.42
2022-12-08T21:35:34.881Z,36.67
2022-12-08T21:38:02.190Z,34.80
2022-12-08T21:40:29.068Z,35.13
2022-12-08T21:42:56.416Z,34.42
2022-12-08T21:45:23.344Z,37.75
2022-12-08T21:47:50.741Z,35.25
2022-12-08T21:50:18.532Z,36.60
2022-12-08T21:52:47.925Z,37.97
2022-12-08T21:55:16.430Z,41.40
2022-12-08T21:58:02.282Z,34.70
2022-12-08T22:00:29.852Z,37.25
2022-12-08T22:02:58.072Z,38.28
2022-12-08T22:05:25.510Z,33.25
2022-12-08T22:07:52.373Z,36.67
2022-12-08T22:10:21.130Z,36.30
2022-12-08T22:12:48.347Z,39.70
2022-12-08T22:15:15.800Z,33.40
2022-12-08T22:17:43.936Z,42.22
2022-12-08T22:20:13.692Z,38.15
2022-12-08T22:22:41.350Z,38.55
2022-12-08T22:25:12.611Z,38.85
2022-12-08T22:27:41.046Z,34.83
2022-12-08T22:30:09.605Z,40.97
2022-12-08T22:32:37.186Z,41.13
2022-12-08T22:35:04.631Z,38.83
2022-12-08T22:37:31.630Z,39.83
2022-12-08T22:39:58.914Z,39.05
2022-12-08T22:42:26.609Z,43.85
2022-12-08T22:44:53.831Z,40.13
2022-12-08T22:47:20.805Z,38.60
2022-12-08T22:49:48.474Z,40.42
2022-12-08T22:52:15.384Z,41.50
2022-12-08T22:54:42.518Z,44.97
2022-12-08T22:57:09.424Z,41.75
2022-12-08T22:59:54.994Z,47.53
2022-12-08T23:02:22.077Z,40.92
2022-12-08T23:04:49.020Z,44.90
2022-12-08T23:07:16.572Z,36.78
2022-12-08T23:09:43.587Z,40.03
2022-12-08T23:12:10.673Z,41.13
2022-12-08T23:14:37.524Z,42.67
2022-12-08T23:17:04.935Z,40.35
2022-12-08T23:19:31.969Z,36.28
2022-12-08T23:21:59.222Z,38.03
2022-12-08T23:24:26.036Z,43.22
2022-12-08T23:26:53.156Z,41.33
2022-12-08T23:29:20.254Z,43.75
2022-12-08T23:31:47.709Z,43.20
2022-12-08T23:34:14.850Z,42.83
2022-12-08T23:36:42.133Z,43.03
2022-12-08T23:39:11.032Z,43.67
2022-12-08T23:41:38.303Z,40.78
2022-12-08T23:44:05.317Z,41.05
2022-12-08T23:46:32.757Z,42.17
2022-12-08T23:48:59.823Z,44.35
2022-12-08T23:51:27.567Z,42.05
2022-12-08T23:53:54.730Z,46.83
2022-12-08T23:56:24.363Z,49.20
2022-12-08T23:58:53.943Z,41.75
